Time;durP1;ratioP1;P1;durP2;ratioP2;P2;SDS_P1;SDS_P2;PMS_P1;PMS_P2;Temp;Humidity;BMP_temperature;BMP_pressure;BME280_temperature;BME280_humidity;BME280_pressure;Samples;Min_cycle;Max_cycle;Signal;HPM_P1;HPM_P2
2022/11/07 00:00:14;;;;;;;9.85;4.82;;;;;;;6.39;100.00;100901.81;5028360;28;20187;-86
2022/11/07 00:02:39;;;;;;;7.13;4.10;;;;;;;6.48;100.00;100908.94;5039457;28;20354;-87
2022/11/07 00:05:06;;;;;;;5.45;2.42;;;;;;;6.44;100.00;100903.13;5029706;28;20499;-87
2022/11/07 00:07:32;;;;;;;5.80;1.58;;;;;;;6.38;100.00;100906.16;5028360;28;20053;-86
2022/11/07 00:09:57;;;;;;;3.05;1.50;;;;;;;6.42;100.00;100904.19;5028560;28;20469;-87
2022/11/07 00:12:23;;;;;;;4.28;1.80;;;;;;;6.43;100.00;100908.44;5021713;28;20033;-87
2022/11/07 00:14:48;;;;;;;3.65;1.52;;;;;;;6.38;100.00;100910.50;5029239;28;20049;-86
2022/11/07 00:17:14;;;;;;;3.10;1.40;;;;;;;6.37;100.00;100914.03;5036185;28;20041;-87
2022/11/07 00:19:39;;;;;;;4.55;1.67;;;;;;;6.38;100.00;100910.50;5029140;28;20025;-87
2022/11/07 00:22:04;;;;;;;4.05;1.70;;;;;;;6.41;100.00;100910.28;5027765;28;20057;-87
2022/11/07 00:24:30;;;;;;;5.15;1.10;;;;;;;6.57;100.00;100908.28;5029034;28;20418;-86
2022/11/07 00:26:55;;;;;;;3.47;1.33;;;;;;;6.55;100.00;100917.94;5029081;28;20347;-86
2022/11/07 00:29:21;;;;;;;5.63;1.30;;;;;;;6.50;100.00;100909.66;5029096;28;20088;-88
2022/11/07 00:31:47;;;;;;;2.63;1.25;;;;;;;6.50;100.00;100910.47;5027779;28;20040;-87
2022/11/07 00:34:13;;;;;;;3.28;0.70;;;;;;;6.65;100.00;100904.19;5028524;28;20037;-87
2022/11/07 00:36:38;;;;;;;2.42;0.60;;;;;;;7.13;100.00;100908.56;5029297;28;20033;-86
2022/11/07 00:39:05;;;;;;;1.73;0.85;;;;;;;7.37;100.00;100908.53;5028595;28;20091;-87
2022/11/07 00:41:30;;;;;;;2.45;0.60;;;;;;;7.24;100.00;100911.19;5010267;28;20021;-87
2022/11/07 00:43:56;;;;;;;4.28;1.00;;;;;;;7.14;100.00;100905.03;5034944;28;20039;-86
2022/11/07 00:46:22;;;;;;;1.38;0.63;;;;;;;7.04;100.00;100917.03;5032144;28;20093;-86
2022/11/07 00:48:47;;;;;;;3.17;0.70;;;;;;;7.34;100.00;100909.59;5014521;28;20052;-86
2022/11/07 00:51:19;;;;;;;6.30;0.57;;;;;;;7.49;100.00;100915.41;5028483;28;20480;-86
2022/11/07 00:53:45;;;;;;;1.80;0.50;;;;;;;7.61;100.00;100920.50;5027218;28;20095;-86
2022/11/07 00:56:14;;;;;;;2.28;0.57;;;;;;;7.58;100.00;100918.13;5028320;28;20440;-86
2022/11/07 00:58:41;;;;;;;2.70;0.52;;;;;;;7.42;100.00;100924.59;5028368;28;20030;-87
2022/11/07 01:01:21;;;;;;;1.73;0.70;;;;;;;7.30;100.00;100908.16;5027452;28;20018;-86
2022/11/07 01:06:33;;;;;;;4.18;1.08;;;;;;;7.10;100.00;100919.97;5028623;28;20052;-87
2022/11/07 01:08:59;;;;;;;2.13;0.50;;;;;;;7.01;100.00;100915.47;5027879;28;20045;-86
2022/11/07 01:11:26;;;;;;;3.53;0.77;;;;;;;6.94;100.00;100911.66;5009899;28;20039;-86
2022/11/07 01:14:00;;;;;;;2.28;0.80;;;;;;;6.92;100.00;100913.53;5020099;28;20025;-86
2022/11/07 01:16:27;;;;;;;2.47;0.73;;;;;;;6.92;100.00;100911.78;5028671;28;20033;-86
2022/11/07 01:18:53;;;;;;;4.00;0.80;;;;;;;7.09;100.00;100909.75;5040657;28;20076;-86
2022/11/07 01:21:19;;;;;;;1.15;0.57;;;;;;;7.25;100.00;100923.22;5009917;28;20045;-86
2022/11/07 01:23:44;;;;;;;2.65;0.90;;;;;;;7.18;100.00;100930.59;5043348;28;20049;-86
2022/11/07 01:26:11;;;;;;;2.42;0.50;;;;;;;7.09;100.00;100927.88;5046423;28;20041;-86
2022/11/07 01:28:37;;;;;;;2.65;0.80;;;;;;;7.18;100.00;100930.59;5047493;28;20051;-86
2022/11/07 01:31:05;;;;;;;2.03;0.57;;;;;;;7.44;100.00;100936.50;5047697;28;20025;-86
2022/11/07 01:33:31;;;;;;;2.67;0.57;;;;;;;7.67;100.00;100934.78;5048942;28;20047;-86
2022/11/07 01:36:07;;;;;;;4.53;1.02;;;;;;;7.74;100.00;100940.34;5047383;28;20112;-86
2022/11/07 01:38:33;;;;;;;;;;;;;;;7.72;98.70;100945.63;5048059;28;20130;-86
2022/11/07 01:44:08;;;;;;;2.97;0.70;;;;;;;7.84;99.37;100941.31;5053705;28;20054;-86
2022/11/07 01:46:41;;;;;;;1.27;0.60;;;;;;;7.90;100.00;100946.84;5047641;28;20108;-86
2022/11/07 01:49:19;;;;;;;3.42;0.70;;;;;;;8.02;100.00;100945.13;5046226;28;20037;-87
2022/11/07 01:52:19;;;;;;;1.63;0.60;;;;;;;8.12;97.27;100940.84;5047625;28;20532;-86
2022/11/07 01:54:45;;;;;;;1.77;0.75;;;;;;;8.19;100.00;100942.03;5046650;28;20039;-86
2022/11/07 01:57:18;;;;;;;1.45;0.50;;;;;;;8.26;97.99;100940.63;5047317;28;20215;-86
2022/11/07 01:59:45;;;;;;;2.33;0.88;;;;;;;8.36;98.55;100935.59;5047025;28;20029;-86
2022/11/07 02:02:11;;;;;;;2.30;0.57;;;;;;;8.40;99.13;100933.59;5045872;28;20071;-87
2022/11/07 02:04:36;;;;;;;3.10;0.50;;;;;;;8.26;100.00;100932.84;5046169;28;20064;-86
2022/11/07 02:07:08;;;;;;;1.08;0.50;;;;;;;8.12;100.00;100933.06;5046830;28;20033;-86
2022/11/07 02:09:34;;;;;;;2.00;0.60;;;;;;;8.06;100.00;100938.72;5028402;28;20120;-87
2022/11/07 02:12:00;;;;;;;5.57;0.77;;;;;;;7.91;100.00;100934.72;5029225;28;20033;-88
2022/11/07 02:14:27;;;;;;;1.67;0.63;;;;;;;7.85;100.00;100929.97;5045407;28;20091;-88
2022/11/07 02:16:53;;;;;;;2.60;0.90;;;;;;;7.98;100.00;100930.72;5045995;28;20490;-88
2022/11/07 02:19:29;;;;;;;2.30;0.47;;;;;;;8.07;100.00;100924.81;5051465;28;20045;-88
2022/11/07 02:22:00;;;;;;;;;;;;;;;8.06;96.37;100930.94;5049523;28;20094;-87
2022/11/07 02:24:30;;;;;;;2.13;0.80;;;;;;;8.07;100.00;100923.97;5051418;28;20541;-86
2022/11/07 02:26:58;;;;;;;4.10;0.80;;;;;;;8.02;100.00;100919.16;5050088;28;20037;-87
2022/11/07 02:29:25;;;;;;;1.65;0.60;;;;;;;7.90;100.00;100922.69;5050676;28;20465;-88
2022/11/07 02:32:09;;;;;;;2.70;0.85;;;;;;;7.80;100.00;100922.53;5050651;28;20044;-87
2022/11/07 02:34:35;;;;;;;1.42;0.50;;;;;;;7.74;100.00;100919.59;5049075;28;20457;-87
2022/11/07 02:37:03;;;;;;;3.20;0.82;;;;;;;7.85;100.00;100922.19;5048982;28;20033;-87
2022/11/07 02:39:29;;;;;;;2.88;1.10;;;;;;;7.86;100.00;100921.25;5050862;28;20040;-87
2022/11/07 02:41:58;;;;;;;2.38;0.95;;;;;;;7.77;100.00;100920.19;5050408;28;20570;-87
2022/11/07 02:44:24;;;;;;;1.50;1.27;;;;;;;7.74;100.00;100919.59;5048300;28;20072;-87
2022/11/07 02:46:50;;;;;;;2.13;1.08;;;;;;;7.81;100.00;100916.41;5048757;28;20043;-87
2022/11/07 02:49:16;;;;;;;5.85;1.05;;;;;;;7.94;100.00;100926.69;5053829;28;20339;-87
2022/11/07 02:51:41;;;;;;;1.33;0.60;;;;;;;8.12;100.00;100933.06;5061984;28;20028;-87
2022/11/07 02:54:06;;;;;;;2.60;0.77;;;;;;;8.19;100.00;100931.66;5058430;28;20064;-87
2022/11/07 02:56:32;;;;;;;1.65;1.00;;;;;;;8.24;98.99;100924.34;5046182;28;20089;-87
2022/11/07 02:58:57;;;;;;;2.17;0.85;;;;;;;8.21;99.05;100924.56;5032330;28;20036;-88
2022/11/07 03:01:23;;;;;;;2.65;0.70;;;;;;;8.19;98.76;100923.88;5049949;28;20462;-88
2022/11/07 03:03:50;;;;;;;4.60;1.33;;;;;;;8.19;97.98;100910.06;5061925;28;20028;-87
2022/11/07 03:06:20;;;;;;;1.30;0.73;;;;;;;8.21;99.12;100897.78;5069885;28;20040;-87
2022/11/07 03:08:46;;;;;;;2.67;0.98;;;;;;;8.23;99.42;100903.69;5069804;28;20029;-86
2022/11/07 03:11:12;;;;;;;1.70;0.60;;;;;;;8.26;99.04;100908.66;5041317;28;20025;-86
2022/11/07 03:13:38;;;;;;;4.47;1.15;;;;;;;8.29;98.32;100908.41;5049162;28;20055;-85
2022/11/07 03:16:09;;;;;;;1.73;0.70;;;;;;;8.31;99.93;100903.94;5050289;28;20131;-85
2022/11/07 03:18:35;;;;;;;2.33;0.90;;;;;;;8.34;99.43;100913.28;5058630;28;20096;-86
2022/11/07 03:21:01;;;;;;;4.30;1.00;;;;;;;8.39;98.03;100906.78;5057727;28;20158;-86
2022/11/07 03:23:26;;;;;;;3.08;1.17;;;;;;;8.49;97.26;100912.09;5064270;28;20163;-86
2022/11/07 03:25:52;;;;;;;1.80;0.80;;;;;;;8.53;96.63;100913.47;5069128;28;20036;-86
2022/11/07 03:28:17;;;;;;;1.98;0.80;;;;;;;8.50;98.26;100909.38;5058590;28;20037;-86
2022/11/07 03:30:43;;;;;;;2.38;0.60;;;;;;;8.51;98.11;100913.59;5049573;28;20082;-86
2022/11/07 03:33:09;;;;;;;2.22;0.70;;;;;;;8.53;97.13;100913.47;5048812;28;20377;-86
2022/11/07 03:35:34;;;;;;;3.63;0.70;;;;;;;8.53;97.29;100929.06;5049833;28;20404;-85
2022/11/07 03:38:00;;;;;;;1.92;0.60;;;;;;;8.50;97.17;100930.16;5049624;28;20097;-85
2022/11/07 03:40:25;;;;;;;3.53;0.80;;;;;;;8.46;95.64;100928.75;5049993;28;20032;-85
2022/11/07 03:42:50;;;;;;;1.90;0.90;;;;;;;8.44;97.01;100935.00;5048770;28;20033;-86
2022/11/07 03:45:16;;;;;;;1.90;0.68;;;;;;;8.42;97.34;100942.06;5049840;28;20033;-86
2022/11/07 03:47:43;;;;;;;1.65;0.85;;;;;;;8.40;97.43;100943.97;5030518;28;20056;-86
2022/11/07 03:50:11;;;;;;;3.03;0.73;;;;;;;8.40;96.07;100951.75;5049627;28;20045;-86
2022/11/07 03:52:37;;;;;;;3.42;1.00;;;;;;;8.36;96.30;100952.94;5049520;28;20028;-86
2022/11/07 03:55:02;;;;;;;2.90;0.80;;;;;;;8.31;97.07;100943.69;5054847;28;20389;-85
2022/11/07 03:57:28;;;;;;;5.80;0.63;;;;;;;8.30;97.51;100949.84;5066709;28;20081;-85
2022/11/07 03:59:53;;;;;;;3.58;1.20;;;;;;;8.27;98.15;100950.06;5064665;28;20040;-86
2022/11/07 04:02:19;;;;;;;4.75;0.93;;;;;;;8.26;98.44;100956.19;5049128;28;20039;-87
2022/11/07 04:04:44;;;;;;;5.07;1.15;;;;;;;8.29;97.99;100952.53;5039947;28;20036;-86
2022/11/07 04:07:09;;;;;;;2.78;0.93;;;;;;;8.32;98.29;100958.38;5049363;28;20203;-87
2022/11/07 04:09:35;;;;;;;3.50;0.50;;;;;;;8.47;97.16;100960.72;5049511;28;20435;-87
2022/11/07 04:17:29;;;;;;;5.10;0.90;;;;;;;8.55;96.49;100947.94;5049361;28;20056;-86
2022/11/07 04:19:55;;;;;;;2.85;1.05;;;;;;;8.56;97.73;100954.78;5060631;28;20387;-85
2022/11/07 04:22:22;;;;;;;1.95;0.82;;;;;;;8.53;97.56;100955.03;5048682;28;20037;-86
2022/11/07 04:24:47;;;;;;;2.10;0.70;;;;;;;8.50;96.94;100953.53;5047451;28;20138;-86
2022/11/07 04:30:17;;;;;;;2.43;0.73;;;;;;;8.46;97.07;100946.09;5049082;28;20465;-86
2022/11/07 04:32:46;;;;;;;2.85;0.80;;;;;;;8.43;96.47;100951.53;5049054;28;20287;-86
2022/11/07 04:35:12;;;;;;;1.70;0.70;;;;;;;8.42;97.50;100957.66;5059795;28;20056;-85
2022/11/07 04:37:38;;;;;;;1.52;0.85;;;;;;;8.43;97.36;100964.50;5030541;28;20129;-85
2022/11/07 04:40:03;;;;;;;1.55;0.95;;;;;;;8.40;97.95;100964.75;5048901;28;20033;-85
2022/11/07 04:42:29;;;;;;;5.65;0.82;;;;;;;8.41;98.16;100974.19;5048360;28;20040;-85
2022/11/07 04:44:54;;;;;;;2.03;1.08;;;;;;;8.49;95.89;100979.63;5055039;28;20036;-86
2022/11/07 04:47:20;;;;;;;2.45;0.85;;;;;;;8.51;95.17;100982.88;5052075;28;20032;-86
2022/11/07 04:49:45;;;;;;;2.45;0.90;;;;;;;8.46;96.46;100977.25;5029047;28;20040;-87
2022/11/07 04:52:11;;;;;;;3.53;1.08;;;;;;;8.40;97.00;100967.34;5035609;28;20795;-86
2022/11/07 04:54:37;;;;;;;3.28;0.85;;;;;;;8.32;97.74;100966.16;5047180;28;20039;-86
2022/11/07 04:57:02;;;;;;;3.80;0.85;;;;;;;8.29;98.58;100983.69;5057069;28;20044;-86
2022/11/07 04:59:27;;;;;;;3.17;1.27;;;;;;;8.23;99.13;100984.16;5067898;28;20074;-85
2022/11/07 05:01:53;;;;;;;5.50;0.77;;;;;;;8.16;100.00;100976.00;5067910;28;20346;-86
2022/11/07 05:04:18;;;;;;;2.78;0.98;;;;;;;8.11;100.00;100975.53;5056501;28;20471;-86
2022/11/07 05:06:44;;;;;;;3.28;0.93;;;;;;;8.04;100.00;100973.50;5030967;28;20074;-86
2022/11/07 05:09:14;;;;;;;1.65;0.60;;;;;;;8.09;100.00;100976.59;5047916;28;20047;-85
2022/11/07 05:11:40;;;;;;;5.90;1.42;;;;;;;8.17;99.52;100980.25;5047824;28;20099;-86
2022/11/07 05:14:05;;;;;;;2.38;0.80;;;;;;;8.21;98.99;100976.50;5047709;28;20140;-86
2022/11/07 05:16:32;;;;;;;3.90;1.30;;;;;;;8.25;98.25;100983.09;5046124;28;20041;-86
2022/11/07 05:18:57;;;;;;;2.00;0.63;;;;;;;8.28;98.97;100985.47;5047431;28;20083;-86
2022/11/07 05:21:23;;;;;;;1.90;0.70;;;;;;;8.23;99.96;100984.16;5046551;28;20165;-86
2022/11/07 05:23:48;;;;;;;1.90;0.90;;;;;;;8.07;100.00;100978.47;5047479;28;20052;-86
2022/11/07 05:26:14;;;;;;;2.95;1.00;;;;;;;7.98;100.00;100980.84;5057349;28;20538;-85
2022/11/07 05:28:39;;;;;;;9.18;1.10;;;;;;;7.87;100.00;100977.41;5049764;28;20024;-87
2022/11/07 05:31:06;;;;;;;3.65;0.70;;;;;;;7.80;100.00;100981.38;5047071;28;20142;-86
2022/11/07 05:33:31;;;;;;;3.13;1.10;;;;;;;7.76;100.00;100985.13;5045461;28;20040;-86
2022/11/07 05:36:08;;;;;;;3.58;0.90;;;;;;;7.71;100.00;100979.47;5048914;28;20033;-86
2022/11/07 05:38:34;;;;;;;3.17;0.75;;;;;;;7.69;100.00;100989.13;5046961;28;20056;-86
2022/11/07 05:41:02;;;;;;;2.10;1.00;;;;;;;7.66;100.00;100993.59;5029106;28;20273;-87
2022/11/07 05:43:28;;;;;;;3.50;0.88;;;;;;;7.60;100.00;100998.41;5047349;28;20119;-87
2022/11/07 05:45:58;;;;;;;2.30;0.77;;;;;;;7.60;100.00;101004.41;5030430;28;20171;-87
2022/11/07 05:48:24;;;;;;;3.05;1.40;;;;;;;7.65;100.00;101004.91;5045891;28;20445;-87
2022/11/07 05:50:49;;;;;;;4.50;1.00;;;;;;;7.73;100.00;101016.50;5050175;28;20045;-87
2022/11/07 05:53:15;;;;;;;2.65;1.20;;;;;;;7.79;100.00;101014.28;5047078;28;20036;-87
2022/11/07 05:55:40;;;;;;;3.92;1.35;;;;;;;7.85;100.00;101025.97;5053152;28;20139;-87
2022/11/07 05:58:10;;;;;;;2.88;1.40;;;;;;;7.87;100.00;101026.69;5066671;28;20029;-87
2022/11/07 06:00:35;;;;;;;3.05;1.20;;;;;;;7.86;100.00;101022.44;5060159;28;20489;-86
2022/11/07 06:03:00;;;;;;;5.20;1.75;;;;;;;7.90;100.00;101026.47;5050533;28;20128;-86
2022/11/07 06:05:27;;;;;;;6.60;1.73;;;;;;;7.91;100.00;101034.13;5049470;28;20028;-88
2022/11/07 06:07:52;;;;;;;4.18;1.55;;;;;;;7.89;100.00;101036.00;5064882;28;20040;-86
2022/11/07 06:10:18;;;;;;;4.28;1.38;;;;;;;7.84;100.00;101037.28;5047357;28;20032;-87
2022/11/07 06:12:44;;;;;;;2.35;1.40;;;;;;;7.88;100.00;101041.31;5047741;28;20033;-87
2022/11/07 06:15:10;;;;;;;4.13;1.42;;;;;;;7.91;100.00;101047.09;5028112;28;20067;-88
2022/11/07 06:17:36;;;;;;;3.97;1.20;;;;;;;7.93;100.00;101059.97;5045572;28;20366;-87
2022/11/07 06:20:02;;;;;;;3.08;1.27;;;;;;;7.99;100.00;101065.53;5051594;28;20060;-89
2022/11/07 06:22:29;;;;;;;4.65;1.42;;;;;;;8.01;100.00;101074.97;5046864;28;20060;-85
2022/11/07 06:24:55;;;;;;;5.25;1.35;;;;;;;7.98;100.00;101076.03;5044177;28;20021;-87
2022/11/07 06:27:21;;;;;;;2.47;1.40;;;;;;;7.93;100.00;101089.34;5046985;28;20028;-85
2022/11/07 06:29:46;;;;;;;5.75;2.38;;;;;;;7.82;100.00;101094.47;5047264;28;20055;-86
2022/11/07 06:32:12;;;;;;;4.00;1.40;;;;;;;7.68;100.00;101099.81;5050469;28;20040;-86
2022/11/07 06:34:37;;;;;;;4.95;1.90;;;;;;;7.63;100.00;101100.16;5048427;28;20163;-86
2022/11/07 06:37:03;;;;;;;4.82;1.42;;;;;;;7.68;100.00;101111.97;5036883;28;20061;-85
2022/11/07 06:39:28;;;;;;;4.57;1.40;;;;;;;7.77;100.00;101111.31;5047387;28;20037;-86
2022/11/07 06:41:54;;;;;;;2.78;1.58;;;;;;;7.86;100.00;101113.25;5048487;28;20037;-86
2022/11/07 06:44:19;;;;;;;4.38;1.45;;;;;;;7.88;100.00;101119.97;5045443;28;20292;-86
2022/11/07 06:46:47;;;;;;;4.63;1.00;;;;;;;7.95;100.00;101120.38;5026065;28;20473;-86
2022/11/07 06:49:14;;;;;;;2.92;1.10;;;;;;;7.99;100.00;101121.78;5040855;28;20090;-86
2022/11/07 06:51:40;;;;;;;3.58;1.25;;;;;;;8.05;100.00;101126.50;5053728;28;20045;-87
2022/11/07 06:54:05;;;;;;;5.55;1.50;;;;;;;8.10;99.79;101121.00;5042678;28;20113;-86
2022/11/07 06:56:31;;;;;;;4.22;1.45;;;;;;;8.13;99.44;101124.19;5053898;28;20037;-86
2022/11/07 06:58:56;;;;;;;2.80;1.25;;;;;;;8.17;100.00;101124.78;5044661;28;20468;-86
2022/11/07 07:01:21;;;;;;;3.13;1.25;;;;;;;8.17;99.37;101130.81;5050018;28;20037;-87
2022/11/07 07:03:47;;;;;;;2.65;1.08;;;;;;;8.16;99.72;101139.53;5046314;28;20453;-87
2022/11/07 07:06:14;;;;;;;3.42;1.13;;;;;;;8.18;98.99;101137.66;5030254;28;20068;-86
2022/11/07 07:08:41;;;;;;;4.88;1.08;;;;;;;8.23;98.62;101137.31;5028694;28;20041;-86
2022/11/07 07:11:09;;;;;;;2.75;1.27;;;;;;;8.27;98.97;101136.97;5043081;28;20064;-86
2022/11/07 07:13:35;;;;;;;1.98;1.15;;;;;;;8.31;98.51;101146.22;5048703;28;20115;-86
2022/11/07 07:16:01;;;;;;;3.30;0.82;;;;;;;8.34;97.84;101136.56;5047300;28;20615;-85
2022/11/07 07:18:27;;;;;;;3.28;1.48;;;;;;;8.39;98.07;101142.25;5048102;28;20060;-86
2022/11/07 07:21:10;;;;;;;2.80;1.35;;;;;;;8.39;96.86;101145.66;5053040;28;20041;-85
2022/11/07 07:23:37;;;;;;;2.78;1.20;;;;;;;8.46;98.08;101153.84;5047138;28;20045;-85
2022/11/07 07:26:10;;;;;;;2.63;1.42;;;;;;;8.50;96.51;101150.91;5053546;28;20036;-86
2022/11/07 07:28:39;;;;;;;2.70;1.20;;;;;;;8.56;97.46;101152.19;5046076;28;20040;-85
2022/11/07 07:31:08;;;;;;;4.90;1.45;;;;;;;8.59;97.55;101154.56;5048928;28;20053;-86
2022/11/07 07:33:34;;;;;;;3.72;1.48;;;;;;;8.62;96.58;101149.13;5048561;28;20036;-86
2022/11/07 07:36:00;;;;;;;3.20;1.45;;;;;;;8.67;97.28;101141.00;5054756;28;20040;-86
2022/11/07 07:38:25;;;;;;;2.40;1.23;;;;;;;8.71;97.20;101139.81;5053172;28;20133;-86
2022/11/07 07:40:50;;;;;;;3.22;1.02;;;;;;;8.80;96.40;101141.72;5048550;28;20027;-87
2022/11/07 07:43:16;;;;;;;2.97;1.33;;;;;;;8.88;95.53;101137.59;5048780;28;20028;-86
2022/11/07 07:45:41;;;;;;;3.10;1.25;;;;;;;8.92;95.42;101136.44;5035531;28;20449;-88
2022/11/07 07:48:07;;;;;;;3.00;1.20;;;;;;;8.88;95.56;101142.81;5048985;28;20044;-88
2022/11/07 07:50:32;;;;;;;3.88;1.42;;;;;;;8.97;95.30;101151.69;5050273;28;20036;-85
2022/11/07 07:52:58;;;;;;;3.70;1.88;;;;;;;9.06;95.41;101143.16;5048416;28;20056;-86
2022/11/07 07:55:24;;;;;;;4.88;1.60;;;;;;;9.17;95.27;101150.13;5056880;28;20085;-86
2022/11/07 07:57:49;;;;;;;2.58;1.50;;;;;;;9.23;95.55;101154.84;5062248;28;20037;-87
2022/11/07 08:00:15;;;;;;;2.70;1.65;;;;;;;9.28;95.40;101152.72;5068839;28;20097;-86
2022/11/07 08:02:42;;;;;;;4.82;1.92;;;;;;;9.48;94.47;101158.94;5052592;28;20477;-87
2022/11/07 08:05:12;;;;;;;2.50;0.93;;;;;;;9.44;93.88;101158.38;5042401;28;20037;-85
2022/11/07 08:07:49;;;;;;;2.58;1.00;;;;;;;9.41;92.32;101160.41;5052976;28;20072;-86
2022/11/07 08:10:16;;;;;;;1.55;0.93;;;;;;;9.43;93.76;101151.53;5030295;28;20021;-86
2022/11/07 08:12:46;;;;;;;3.42;1.35;;;;;;;9.49;93.26;101152.78;5039994;28;20041;-86
2022/11/07 08:15:13;;;;;;;3.72;0.82;;;;;;;9.56;92.46;101154.78;5047009;28;20266;-86
2022/11/07 08:17:39;;;;;;;3.50;1.35;;;;;;;9.64;91.31;101149.81;5046782;28;20045;-86
2022/11/07 08:20:06;;;;;;;2.63;1.10;;;;;;;9.72;92.29;101151.81;5031172;28;20307;-86
2022/11/07 08:22:31;;;;;;;2.72;1.00;;;;;;;9.82;91.99;101155.34;5059572;28;20080;-86
2022/11/07 08:24:56;;;;;;;4.97;1.25;;;;;;;9.88;91.52;101149.66;5047533;28;20032;-86
2022/11/07 08:27:22;;;;;;;4.35;1.02;;;;;;;9.91;92.07;101151.19;5048156;28;20029;-86
2022/11/07 08:29:47;;;;;;;3.35;1.25;;;;;;;9.95;92.79;101148.16;5048884;28;20489;-85
2022/11/07 08:32:13;;;;;;;7.03;1.65;;;;;;;10.09;92.73;101141.84;5047073;28;20033;-85
2022/11/07 08:34:38;;;;;;;4.20;1.98;;;;;;;10.16;93.04;101145.63;5054708;28;20051;-85
2022/11/07 08:37:04;;;;;;;3.97;1.60;;;;;;;10.30;92.48;101150.56;5053494;28;20043;-85
2022/11/07 08:39:29;;;;;;;4.32;2.10;;;;;;;10.35;92.46;101152.78;5053332;28;20234;-85
2022/11/07 08:41:54;;;;;;;4.53;1.88;;;;;;;10.45;92.24;101150.22;5048948;28;20047;-85
2022/11/07 08:44:20;;;;;;;7.15;1.92;;;;;;;10.51;93.13;101149.72;5047083;28;20024;-86
2022/11/07 08:46:45;;;;;;;4.05;2.05;;;;;;;10.49;93.91;101149.03;5047003;28;20033;-85
2022/11/07 08:49:11;;;;;;;4.03;1.80;;;;;;;10.45;94.44;101158.03;5056572;28;20031;-86
2022/11/07 08:51:36;;;;;;;5.53;1.80;;;;;;;10.53;92.93;101159.06;5029779;28;20064;-85
2022/11/07 08:54:02;;;;;;;4.07;1.80;;;;;;;10.61;91.09;101163.63;5029794;28;20033;-86
2022/11/07 08:56:27;;;;;;;2.10;1.60;;;;;;;10.74;92.43;101173.88;5046169;28;20135;-85
2022/11/07 08:58:53;;;;;;;4.05;1.17;;;;;;;10.89;90.47;101176.00;5043599;28;20503;-85
2022/11/07 09:01:18;;;;;;;4.28;1.67;;;;;;;10.98;90.96;101177.84;5052411;28;20167;-86
2022/11/07 09:03:44;;;;;;;2.58;1.52;;;;;;;11.03;89.74;101169.63;5045874;28;20048;-85
2022/11/07 09:06:10;;;;;;;5.22;1.80;;;;;;;11.09;88.54;101163.88;5042631;28;20218;-87
2022/11/07 09:08:35;;;;;;;2.90;1.20;;;;;;;11.28;86.48;101163.97;5026275;28;20064;-85
2022/11/07 09:11:02;;;;;;;4.15;1.35;;;;;;;11.38;86.04;101169.19;5045451;28;20043;-85
2022/11/07 09:13:31;;;;;;;2.13;1.23;;;;;;;11.45;84.82;101175.53;5044639;28;20540;-86
2022/11/07 09:16:01;;;;;;;2.30;0.85;;;;;;;11.62;83.83;101177.53;5043542;28;20406;-86
2022/11/07 09:18:27;;;;;;;6.55;1.75;;;;;;;11.60;85.01;101176.84;5025092;28;20419;-85
2022/11/07 09:20:53;;;;;;;4.53;1.70;;;;;;;11.64;85.92;101170.38;5055617;28;20040;-86
2022/11/07 09:23:19;;;;;;;8.25;3.50;;;;;;;11.67;86.16;101165.84;5048362;28;20480;-86
2022/11/07 09:25:45;;;;;;;4.13;1.60;;;;;;;11.61;87.35;101162.00;5044174;28;20108;-86
2022/11/07 09:28:10;;;;;;;6.80;2.85;;;;;;;11.46;88.47;101165.94;5045833;28;20083;-86
2022/11/07 09:30:36;;;;;;;4.70;1.92;;;;;;;11.44;88.10;101166.06;5045509;28;20032;-85
2022/11/07 09:33:01;;;;;;;3.33;1.42;;;;;;;11.53;87.72;101174.88;5027902;28;20037;-86
2022/11/07 09:35:27;;;;;;;3.05;1.38;;;;;;;11.61;87.59;101175.88;5027402;28;20038;-86
2022/11/07 09:37:52;;;;;;;3.75;1.90;;;;;;;11.67;87.61;101178.91;5048531;28;20516;-86
2022/11/07 09:40:18;;;;;;;4.63;1.77;;;;;;;11.64;87.87;101177.41;5046371;28;20064;-86
2022/11/07 09:43:17;;;;;;;4.60;2.30;;;;;;;11.58;86.48;101189.19;5046064;28;20098;-86
2022/11/07 09:45:53;;;;;;;4.07;2.88;;;;;;;11.70;86.10;101187.31;5042038;28;20139;-86
2022/11/07 09:48:24;;;;;;;4.88;2.22;;;;;;;11.93;86.79;101174.84;5041610;28;20453;-86
2022/11/07 09:50:50;;;;;;;4.55;2.33;;;;;;;11.93;87.25;101177.47;5046785;28;20032;-86
2022/11/07 09:53:32;;;;;;;3.97;2.38;;;;;;;12.00;84.42;101175.13;5048128;28;20075;-86
2022/11/07 09:56:03;;;;;;;4.15;2.58;;;;;;;11.94;86.85;101172.09;5044577;28;20044;-86
2022/11/07 09:58:33;;;;;;;2.70;1.92;;;;;;;11.91;88.13;101174.97;5044330;28;20094;-86
2022/11/07 10:01:07;;;;;;;2.70;1.70;;;;;;;11.85;88.29;101177.31;5046012;28;20044;-86
2022/11/07 10:03:36;;;;;;;2.15;1.52;;;;;;;11.89;88.37;101168.25;5032535;28;20423;-86
2022/11/07 10:06:26;;;;;;;3.50;1.85;;;;;;;12.08;83.41;101170.88;5046507;28;20292;-86
2022/11/07 10:09:13;;;;;;;3.40;1.70;;;;;;;12.29;86.12;101173.34;5057408;28;20029;-86
2022/11/07 10:11:53;;;;;;;2.83;1.92;;;;;;;12.22;87.34;101175.69;5045320;28;20104;-86
2022/11/07 10:14:39;;;;;;;4.10;1.77;;;;;;;12.38;85.13;101172.50;5044570;28;20486;-87
2022/11/07 10:17:24;;;;;;;2.92;1.48;;;;;;;12.40;86.35;101174.97;5044888;28;20520;-86
2022/11/07 10:20:27;;;;;;;3.65;1.98;;;;;;;12.43;85.41;101166.88;5046652;28;20039;-87
2022/11/07 10:23:05;;;;;;;3.50;2.00;;;;;;;12.45;88.14;101171.00;5024270;28;20072;-86
2022/11/07 10:25:42;;;;;;;4.15;1.85;;;;;;;12.46;87.91;101163.97;5026111;28;20434;-86
2022/11/07 10:28:17;;;;;;;5.07;2.17;;;;;;;12.51;88.81;101157.38;5025347;28;20553;-86
2022/11/07 10:30:47;;;;;;;5.22;1.77;;;;;;;12.53;89.58;101159.84;5028658;28;20040;-86
2022/11/07 10:33:19;;;;;;;3.88;2.08;;;;;;;12.57;89.27;101161.22;5020545;28;20925;-86
2022/11/07 10:35:53;;;;;;;2.67;1.90;;;;;;;12.62;88.98;101156.38;5024301;28;20079;-86
2022/11/07 10:38:26;;;;;;;4.03;2.50;;;;;;;12.63;89.77;101158.03;5019251;28;20051;-86
2022/11/07 10:40:52;;;;;;;3.65;2.00;;;;;;;12.70;88.43;101153.91;5040400;28;20049;-85
2022/11/07 10:43:32;;;;;;;3.70;2.03;;;;;;;13.11;85.08;101147.41;5031578;28;20132;-85
2022/11/07 10:46:00;;;;;;;5.80;1.92;;;;;;;13.20;86.37;101146.59;5029061;28;20033;-86
2022/11/07 10:48:28;;;;;;;3.40;2.20;;;;;;;13.18;86.51;101147.69;5028765;28;20044;-86
2022/11/07 10:50:55;;;;;;;3.22;2.10;;;;;;;13.12;87.00;101143.00;5033439;28;20041;-85
2022/11/07 10:53:22;;;;;;;3.25;1.98;;;;;;;13.15;87.81;101142.72;5035131;28;20033;-85
2022/11/07 10:55:49;;;;;;;4.07;1.92;;;;;;;13.17;87.66;101148.66;5037662;28;20108;-85
2022/11/07 10:58:25;;;;;;;2.25;1.85;;;;;;;13.24;86.07;101141.84;5012982;28;20067;-86
2022/11/07 11:00:56;;;;;;;;;;;;;;;13.21;82.05;101137.78;5041807;28;20036;-85
2022/11/07 11:03:29;;;;;;;3.35;2.08;;;;;;;13.22;88.42;101136.81;5029641;28;19913;-86
2022/11/07 11:05:54;;;;;;;4.18;2.35;;;;;;;13.24;88.66;101136.63;5029885;28;20041;-86
2022/11/07 11:08:22;;;;;;;4.38;2.53;;;;;;;13.33;88.16;101134.94;5030556;28;20026;-85
2022/11/07 11:10:49;;;;;;;4.43;2.53;;;;;;;13.37;87.79;101131.88;5029462;28;20100;-85
2022/11/07 11:13:33;;;;;;;4.13;2.15;;;;;;;13.39;86.89;101122.09;5029182;28;20060;-87
2022/11/07 11:16:20;;;;;;;6.03;2.33;;;;;;;13.43;86.94;101118.22;5029978;28;20501;-85
2022/11/07 11:18:54;;;;;;;3.88;2.38;;;;;;;13.49;87.20;101115.00;5030235;28;20079;-87
2022/11/07 11:21:20;;;;;;;3.75;2.33;;;;;;;13.60;87.76;101111.34;5030568;28;20037;-86
2022/11/07 11:23:47;;;;;;;4.55;2.03;;;;;;;13.65;86.11;101105.69;5048299;28;20058;-86
2022/11/07 11:26:33;;;;;;;3.75;2.05;;;;;;;13.65;84.07;101095.22;5049478;28;20468;-85
2022/11/07 11:29:04;;;;;;;5.55;3.03;;;;;;;13.63;86.14;101084.88;5048143;28;20513;-86
2022/11/07 11:31:32;;;;;;;5.13;2.75;;;;;;;13.73;86.08;101087.41;5048353;28;20071;-86
2022/11/07 11:34:07;;;;;;;3.65;2.10;;;;;;;13.75;85.81;101075.81;5048932;28;20035;-86
2022/11/07 11:36:39;;;;;;;3.60;1.92;;;;;;;13.77;86.24;101075.66;5048633;28;20037;-86
2022/11/07 11:39:25;;;;;;;4.20;2.42;;;;;;;13.80;86.00;101075.34;5048011;28;20031;-86
2022/11/07 11:41:55;;;;;;;4.33;2.57;;;;;;;13.82;86.36;101074.22;5050787;28;20128;-85
2022/11/07 11:44:41;;;;;;;2.83;2.20;;;;;;;13.81;84.04;101071.75;5048930;28;20036;-85
2022/11/07 11:47:23;;;;;;;2.58;2.35;;;;;;;13.84;85.73;101081.94;5048865;28;20044;-86